MSC Leanne — 3EXH3 — position and weather

sailwx.info

Track history (hours):
 
Tides and Currents Weather Stations Pressure Air Temp Water Temp Dewpoint Dewpoint Depression Visibility Wind Speed Wind Dir Waves Ship Positions

MSC Leanne

Last reported at 2015-Mar-05 19:31 UTC. Time now 2015-Mar-05 20:15 UTC.
Position N 40°41' W 074°09'.

Length 294 m; draft 10.4 m.

Type: Ship (hazmat cat A). MMSI: 357723000.

Date/timePositionNaut miles runAvg speedWind from/ knotsBaromVisibWave heightAir tempDewpointWater temp
2015-Mar-05 19:31N 40°41' W 074°09'0 0.0
2015-Mar-05 18:22N 40°41' W 074°09'0 0.0
2015-Mar-05 17:28N 40°41' W 074°09'0 0.0
2015-Mar-05 16:28N 40°41' W 074°09'0 0.0
2015-Mar-05 15:28N 40°41' W 074°09'0 0.0
2015-Mar-05 14:28N 40°41' W 074°09'0 0.0
2015-Mar-05 13:16N 40°41' W 074°09'0 0.0
2015-Mar-05 12:28N 40°41' W 074°09'0 0.0
2015-Mar-05 11:28N 40°41' W 074°09'0 0.0
2015-Mar-05 10:28N 40°41' W 074°09'0 0.0
2015-Mar-05 09:10N 40°41' W 074°09'0 0.0
2015-Mar-05 08:22N 40°41' W 074°09'0 0.0
2015-Mar-05 07:28N 40°41' W 074°09'0 0.0
2015-Mar-05 06:28N 40°41' W 074°09'0 0.0
2015-Mar-05 05:28N 40°41' W 074°09'0 0.0
2015-Mar-05 04:31N 40°41' W 074°09'0 0.0
2015-Mar-05 03:28N 40°41' W 074°09'0 0.0
2015-Mar-05 02:28N 40°41' W 074°09'0 0.0
2015-Mar-05 01:28N 40°41' W 074°09'0 0.0
2015-Mar-04 23:28N 40°41' W 074°09'0 0.0
2015-Mar-04 22:28N 40°41' W 074°09'0 0.0
2015-Mar-04 21:28N 40°41' W 074°09'0 0.0
2015-Mar-04 19:28N 40°41' W 074°09'0 0.0
2015-Mar-04 18:28N 40°41' W 074°09'0 0.0
2015-Mar-04 17:28N 40°41' W 074°09'1 1.0
2015-Mar-04 16:34N 40°41' W 074°08'3 2.6
2015-Mar-04 15:33N 40°39' W 074°06'9 8.6
2015-Mar-04 14:33N 40°31' W 074°00'11 8.9
2015-Mar-04 13:19N 40°28' W 073°46'3 4.0
2015-Mar-04 12:29N 40°29' W 073°43'3 2.7
2015-Mar-04 11:32N 40°31' W 073°40'0 0.0
2015-Mar-04 10:29N 40°31' W 073°40'0 0.1
2015-Mar-04 09:32N 40°31' W 073°40'0 0.0
2015-Mar-04 08:23N 40°31' W 073°40'0 0.0
2015-Mar-04 06:29N 40°31' W 073°40'0 0.0
2015-Mar-04 00:32N 40°31' W 073°40'0 0.0
2015-Mar-03 21:11N 40°31' W 073°40'0 0.0
2015-Mar-03 20:32N 40°31' W 073°40'0 0.0
2015-Mar-03 19:27N 40°31' W 073°40'0 0.0
2015-Mar-03 18:26N 40°31' W 073°40'0 0.0
2015-Mar-03 17:32N 40°31' W 073°40'0 0.0
2015-Mar-03 13:13N 40°31' W 073°40'0 0.1
2015-Mar-03 12:26N 40°31' W 073°40'8 8.7
2015-Mar-03 11:33N 40°24' W 073°45'  
2015-Feb-26 02:33N 26°31' W 078°46'3 3.3
2015-Feb-26 01:34N 26°28' W 078°48'  
Track history (hours):
 
Tides and Currents Weather Stations Pressure Air Temp Water Temp Dewpoint Dewpoint Depression Visibility Wind Speed Wind Dir Waves Ship Positions

MSC Leanne

Last reported at 2015-Mar-05 19:31 UTC. Time now 2015-Mar-05 20:15 UTC.
Position N 40°41' W 074°09'.

Length 294 m; draft 10.4 m.

Type: Ship (hazmat cat A). MMSI: 357723000.

Date/timePositionNaut miles runAvg speedWind from/ knotsBaromVisibWave heightAir tempDewpointWater temp
2015-Mar-05 19:31N 40°41' W 074°09'0 0.0
2015-Mar-05 18:22N 40°41' W 074°09'0 0.0
2015-Mar-05 17:28N 40°41' W 074°09'0 0.0
2015-Mar-05 16:28N 40°41' W 074°09'0 0.0
2015-Mar-05 15:28N 40°41' W 074°09'0 0.0
2015-Mar-05 14:28N 40°41' W 074°09'0 0.0
2015-Mar-05 13:16N 40°41' W 074°09'0 0.0
2015-Mar-05 12:28N 40°41' W 074°09'0 0.0
2015-Mar-05 11:28N 40°41' W 074°09'0 0.0
2015-Mar-05 10:28N 40°41' W 074°09'0 0.0
2015-Mar-05 09:10N 40°41' W 074°09'0 0.0
2015-Mar-05 08:22N 40°41' W 074°09'0 0.0
2015-Mar-05 07:28N 40°41' W 074°09'0 0.0
2015-Mar-05 06:28N 40°41' W 074°09'0 0.0
2015-Mar-05 05:28N 40°41' W 074°09'0 0.0
2015-Mar-05 04:31N 40°41' W 074°09'0 0.0
2015-Mar-05 03:28N 40°41' W 074°09'0 0.0
2015-Mar-05 02:28N 40°41' W 074°09'0 0.0
2015-Mar-05 01:28N 40°41' W 074°09'0 0.0
2015-Mar-04 23:28N 40°41' W 074°09'0 0.0
2015-Mar-04 22:28N 40°41' W 074°09'0 0.0
2015-Mar-04 21:28N 40°41' W 074°09'0 0.0
2015-Mar-04 19:28N 40°41' W 074°09'0 0.0
2015-Mar-04 18:28N 40°41' W 074°09'0 0.0
2015-Mar-04 17:28N 40°41' W 074°09'1 1.0
2015-Mar-04 16:34N 40°41' W 074°08'3 2.6
2015-Mar-04 15:33N 40°39' W 074°06'9 8.6
2015-Mar-04 14:33N 40°31' W 074°00'11 8.9
2015-Mar-04 13:19N 40°28' W 073°46'3 4.0
2015-Mar-04 12:29N 40°29' W 073°43'3 2.7
2015-Mar-04 11:32N 40°31' W 073°40'0 0.0
2015-Mar-04 10:29N 40°31' W 073°40'0 0.1
2015-Mar-04 09:32N 40°31' W 073°40'0 0.0
2015-Mar-04 08:23N 40°31' W 073°40'0 0.0
2015-Mar-04 06:29N 40°31' W 073°40'0 0.0
2015-Mar-04 00:32N 40°31' W 073°40'0 0.0
2015-Mar-03 21:11N 40°31' W 073°40'0 0.0
2015-Mar-03 20:32N 40°31' W 073°40'0 0.0
2015-Mar-03 19:27N 40°31' W 073°40'0 0.0
2015-Mar-03 18:26N 40°31' W 073°40'0 0.0
2015-Mar-03 17:32N 40°31' W 073°40'0 0.0
2015-Mar-03 13:13N 40°31' W 073°40'0 0.1
2015-Mar-03 12:26N 40°31' W 073°40'8 8.7
2015-Mar-03 11:33N 40°24' W 073°45'  
2015-Feb-26 02:33N 26°31' W 078°46'3 3.3
2015-Feb-26 01:34N 26°28' W 078°48'  

Dump ship's entire track history